Time;durP1;ratioP1;P1;durP2;ratioP2;P2;SDS_P1;SDS_P2;PMS_P1;PMS_P2;Temp;Humidity;BMP_temperature;BMP_pressure;BME280_temperature;BME280_humidity;BME280_pressure;Samples;Min_cycle;Max_cycle;Signal;HPM_P1;HPM_P2
2023/06/25 00:01:54;;;;;;;4.47;4.05;;;;;;;;;;4971318;28;20042;-76
2023/06/25 00:04:21;;;;;;;4.65;4.05;;;;;;;;;;4964232;28;20530;-76
2023/06/25 00:06:46;;;;;;;4.60;3.95;;;;;;;;;;4974459;28;20156;-76
2023/06/25 00:09:12;;;;;;;4.90;4.18;;;;;;;;;;4976093;28;20038;-77
2023/06/25 00:11:37;;;;;;;5.25;3.95;;;;;;;;;;4975991;28;20042;-76
2023/06/25 00:14:03;;;;;;;4.30;3.75;;;;;;;;;;4981692;28;20285;-77
2023/06/25 00:16:29;;;;;;;4.75;3.75;;;;;;;;;;4984234;28;20049;-76
2023/06/25 00:18:55;;;;;;;6.18;3.45;;;;;;;;;;4967407;28;20046;-76
2023/06/25 00:21:20;;;;;;;4.30;3.50;;;;;;;;;;4978174;28;20034;-76
2023/06/25 00:23:46;;;;;;;4.78;4.28;;;;;;;;;;4988654;28;20052;-77
2023/06/25 00:26:11;;;;;;;4.50;3.58;;;;;;;;;;4987685;28;20062;-77
2023/06/25 00:28:37;;;;;;;4.32;3.53;;;;;;;;;;4983460;28;20077;-76
2023/06/25 00:31:03;;;;;;;4.85;3.80;;;;;;;;;;4983689;28;20085;-76
2023/06/25 00:33:28;;;;;;;3.90;3.50;;;;;;;;;;4972379;28;20043;-77
2023/06/25 00:35:55;;;;;;;5.45;4.00;;;;;;;;;;4967482;28;20505;-77
2023/06/25 00:38:20;;;;;;;3.92;3.53;;;;;;;;;;4960241;28;20142;-77
2023/06/25 00:40:46;;;;;;;4.57;4.18;;;;;;;;;;4977452;28;20053;-77
2023/06/25 00:43:15;;;;;;;4.25;3.85;;;;;;;;;;4967059;28;20087;-77
2023/06/25 00:45:40;;;;;;;4.63;3.70;;;;;;;;;;4956795;28;20035;-76
2023/06/25 00:48:06;;;;;;;6.93;4.20;;;;;;;;;;4953747;28;20032;-77
2023/06/25 00:50:32;;;;;;;4.60;3.65;;;;;;;;;;4952552;28;20034;-77
2023/06/25 00:52:58;;;;;;;3.78;3.35;;;;;;;;;;4955015;28;20415;-77
2023/06/25 00:55:25;;;;;;;6.22;3.58;;;;;;;;;;4954760;28;20071;-76
2023/06/25 00:57:52;;;;;;;5.13;3.95;;;;;;;;;;4949790;28;20029;-76
2023/06/25 01:00:18;;;;;;;6.55;3.83;;;;;;;;;;4952943;28;20055;-77
2023/06/25 01:02:53;;;;;;;4.30;3.85;;;;;;;;;;4953000;28;20014;-75
2023/06/25 01:05:51;;;;;;;4.93;3.65;;;;;;;;;;4957489;28;20086;-77
2023/06/25 01:08:16;;;;;;;3.83;3.50;;;;;;;;;;4947326;28;20035;-76
2023/06/25 01:10:43;;;;;;;6.50;4.32;;;;;;;;;;4965991;28;20028;-77
2023/06/25 01:13:08;;;;;;;4.75;4.28;;;;;;;;;;4955733;28;20051;-77
2023/06/25 01:15:34;;;;;;;5.78;4.18;;;;;;;;;;4950380;28;20063;-76
2023/06/25 01:17:59;;;;;;;6.22;4.25;;;;;;;;;;4953657;28;20022;-76
2023/06/25 01:20:27;;;;;;;3.83;3.42;;;;;;;;;;4956767;28;20692;-77
2023/06/25 01:22:54;;;;;;;5.47;3.92;;;;;;;;;;4957005;28;20033;-77
2023/06/25 01:25:20;;;;;;;11.48;3.97;;;;;;;;;;4960110;28;20089;-76
2023/06/25 01:27:45;;;;;;;4.78;4.28;;;;;;;;;;4954797;28;20745;-77
2023/06/25 01:30:11;;;;;;;5.45;4.50;;;;;;;;;;4955108;28;20412;-77
2023/06/25 01:32:41;;;;;;;5.72;3.97;;;;;;;;;;4950666;28;20043;-77
2023/06/25 01:35:07;;;;;;;4.70;3.70;;;;;;;;;;4951056;28;20027;-76
2023/06/25 01:37:32;;;;;;;6.13;3.97;;;;;;;;;;4953828;28;20101;-76
2023/06/25 01:39:58;;;;;;;8.98;4.60;;;;;;;;;;4953399;28;20023;-77
2023/06/25 01:42:23;;;;;;;4.38;3.55;;;;;;;;;;4953551;28;20023;-77
2023/06/25 01:44:49;;;;;;;5.13;3.95;;;;;;;;;;4951722;28;20432;-77
2023/06/25 01:47:14;;;;;;;5.28;4.00;;;;;;;;;;4952545;28;20023;-77
2023/06/25 01:49:39;;;;;;;5.55;3.72;;;;;;;;;;4963885;28;20109;-77
2023/06/25 01:52:07;;;;;;;8.30;3.63;;;;;;;;;;4961025;28;20019;-77
2023/06/25 01:54:32;;;;;;;3.20;2.90;;;;;;;;;;4964724;28;20177;-77
2023/06/25 01:56:59;;;;;;;5.22;3.90;;;;;;;;;;4954628;28;20079;-78
2023/06/25 01:59:25;;;;;;;4.40;3.88;;;;;;;;;;4963762;28;20019;-76
2023/06/25 02:01:50;;;;;;;5.93;3.88;;;;;;;;;;4953013;28;20369;-76
2023/06/25 02:04:15;;;;;;;3.92;3.53;;;;;;;;;;4947897;28;20028;-76
2023/06/25 02:06:41;;;;;;;8.88;4.05;;;;;;;;;;4952595;28;20019;-77
2023/06/25 02:09:07;;;;;;;5.47;3.80;;;;;;;;;;4984431;28;20106;-77
2023/06/25 02:11:32;;;;;;;4.82;3.55;;;;;;;;;;4954772;28;20051;-76
2023/06/25 02:13:58;;;;;;;5.78;3.60;;;;;;;;;;4948909;28;20068;-76
2023/06/25 02:16:23;;;;;;;4.75;3.58;;;;;;;;;;4951157;28;20046;-76
2023/06/25 02:18:49;;;;;;;4.97;3.58;;;;;;;;;;4951756;28;20034;-76
2023/06/25 02:21:15;;;;;;;5.38;3.45;;;;;;;;;;4951884;28;20023;-76
2023/06/25 02:23:40;;;;;;;4.85;3.60;;;;;;;;;;4950349;28;20041;-76
2023/06/25 02:26:06;;;;;;;4.20;3.17;;;;;;;;;;4948011;28;20106;-76
2023/06/25 02:28:31;;;;;;;3.42;3.13;;;;;;;;;;4946516;28;20542;-75
2023/06/25 02:30:56;;;;;;;4.13;3.28;;;;;;;;;;4963928;28;20587;-77
2023/06/25 02:33:22;;;;;;;3.80;3.40;;;;;;;;;;4954796;28;20102;-76
2023/06/25 02:35:47;;;;;;;4.32;3.70;;;;;;;;;;4953310;28;20030;-77
2023/06/25 02:38:12;;;;;;;4.90;3.70;;;;;;;;;;4947098;28;20488;-76
2023/06/25 02:40:38;;;;;;;4.60;3.42;;;;;;;;;;4960629;28;20039;-77
2023/06/25 02:43:03;;;;;;;5.82;3.70;;;;;;;;;;4947711;28;20034;-77
2023/06/25 02:45:29;;;;;;;3.53;2.95;;;;;;;;;;4952621;28;20174;-77
2023/06/25 02:47:54;;;;;;;4.00;3.60;;;;;;;;;;4959331;28;20031;-76
2023/06/25 02:50:19;;;;;;;3.92;3.15;;;;;;;;;;4955210;28;20066;-76
2023/06/25 02:52:45;;;;;;;3.60;3.00;;;;;;;;;;4952423;28;20034;-77
2023/06/25 02:55:10;;;;;;;4.05;3.50;;;;;;;;;;4954081;28;20047;-76
2023/06/25 02:57:36;;;;;;;4.40;3.20;;;;;;;;;;4956710;28;20479;-76
2023/06/25 03:00:04;;;;;;;3.20;2.90;;;;;;;;;;4953206;28;20054;-77
2023/06/25 03:02:30;;;;;;;3.10;2.78;;;;;;;;;;4963966;28;20050;-77
2023/06/25 03:04:55;;;;;;;2.88;2.63;;;;;;;;;;4954219;28;20030;-77
2023/06/25 03:07:21;;;;;;;3.83;3.42;;;;;;;;;;4950434;28;20493;-76
2023/06/25 03:09:46;;;;;;;4.65;3.40;;;;;;;;;;4946072;28;20391;-76
2023/06/25 03:12:11;;;;;;;6.40;3.70;;;;;;;;;;4952652;28;20091;-75
2023/06/25 03:14:37;;;;;;;4.88;3.70;;;;;;;;;;4950478;28;20178;-76
2023/06/25 03:17:04;;;;;;;4.72;3.85;;;;;;;;;;4943458;28;20041;-76
2023/06/25 03:19:30;;;;;;;4.63;3.50;;;;;;;;;;4951255;28;20537;-75
2023/06/25 03:21:55;;;;;;;4.78;3.75;;;;;;;;;;4949029;28;20023;-76
2023/06/25 03:24:20;;;;;;;5.90;4.38;;;;;;;;;;4958112;28;20143;-76
2023/06/25 03:26:46;;;;;;;4.80;4.00;;;;;;;;;;4953145;28;20101;-74
2023/06/25 03:29:11;;;;;;;4.07;3.47;;;;;;;;;;4950043;28;20042;-75
2023/06/25 03:31:37;;;;;;;4.85;3.78;;;;;;;;;;4950199;28;20027;-76
2023/06/25 03:34:02;;;;;;;5.75;4.20;;;;;;;;;;4947036;28;20407;-76
2023/06/25 03:36:28;;;;;;;5.53;3.63;;;;;;;;;;4948741;28;20507;-76
2023/06/25 03:38:53;;;;;;;5.07;3.40;;;;;;;;;;4949963;28;20031;-75
2023/06/25 03:41:18;;;;;;;5.03;3.58;;;;;;;;;;4949850;28;20027;-76
2023/06/25 03:43:44;;;;;;;4.35;3.75;;;;;;;;;;4944629;28;20425;-74
2023/06/25 03:46:09;;;;;;;4.18;3.78;;;;;;;;;;4947158;28;20628;-75
2023/06/25 03:48:35;;;;;;;5.07;3.80;;;;;;;;;;4970877;28;20026;-76
2023/06/25 03:51:00;;;;;;;5.47;4.20;;;;;;;;;;4946096;28;20110;-75
2023/06/25 03:53:26;;;;;;;5.90;4.43;;;;;;;;;;4947746;28;20436;-75
2023/06/25 03:55:52;;;;;;;7.65;4.85;;;;;;;;;;4947225;28;20019;-75
2023/06/25 03:58:17;;;;;;;4.53;3.83;;;;;;;;;;4953913;28;20117;-75
2023/06/25 04:00:42;;;;;;;4.93;4.13;;;;;;;;;;4950795;28;20027;-74
2023/06/25 04:03:08;;;;;;;6.68;4.32;;;;;;;;;;4955614;28;20038;-75
2023/06/25 04:05:33;;;;;;;5.88;3.80;;;;;;;;;;4950692;28;20027;-75
2023/06/25 04:07:59;;;;;;;7.47;4.70;;;;;;;;;;4958918;28;20026;-75
2023/06/25 04:10:25;;;;;;;14.38;4.88;;;;;;;;;;4951275;28;20019;-76
2023/06/25 04:12:50;;;;;;;6.03;4.57;;;;;;;;;;4954893;28;20031;-75
2023/06/25 04:15:16;;;;;;;7.03;4.85;;;;;;;;;;4966662;28;20102;-76
2023/06/25 04:17:41;;;;;;;6.18;4.90;;;;;;;;;;4962092;28;20484;-76
2023/06/25 04:20:07;;;;;;;6.43;4.32;;;;;;;;;;4951227;28;20034;-76
2023/06/25 04:22:33;;;;;;;7.22;4.47;;;;;;;;;;4958630;28;20043;-76
2023/06/25 04:24:59;;;;;;;5.60;4.60;;;;;;;;;;4950894;28;20051;-76
2023/06/25 04:27:24;;;;;;;7.90;4.50;;;;;;;;;;4950142;28;20023;-75
2023/06/25 04:29:50;;;;;;;7.95;4.97;;;;;;;;;;4954394;28;20023;-75
2023/06/25 04:32:16;;;;;;;6.00;4.22;;;;;;;;;;4948791;28;20057;-75
2023/06/25 04:34:41;;;;;;;13.65;6.05;;;;;;;;;;4957036;28;20046;-75
2023/06/25 04:37:07;;;;;;;6.93;4.63;;;;;;;;;;4945830;28;20019;-75
2023/06/25 04:39:32;;;;;;;6.45;4.18;;;;;;;;;;4947909;28;20488;-75
2023/06/25 04:41:58;;;;;;;7.35;4.63;;;;;;;;;;4950955;28;20031;-77
2023/06/25 04:44:25;;;;;;;8.80;4.63;;;;;;;;;;4953626;28;20018;-76
2023/06/25 04:46:50;;;;;;;10.02;4.97;;;;;;;;;;4953917;28;20139;-76
2023/06/25 04:49:15;;;;;;;8.10;4.45;;;;;;;;;;4948478;28;20041;-77
2023/06/25 04:51:45;;;;;;;7.93;4.22;;;;;;;;;;4970552;28;20031;-77
2023/06/25 04:54:10;;;;;;;7.40;4.35;;;;;;;;;;4948824;28;20038;-77
2023/06/25 04:56:36;;;;;;;10.32;5.07;;;;;;;;;;4957315;28;20026;-77
2023/06/25 04:59:01;;;;;;;8.10;4.50;;;;;;;;;;4951229;28;20082;-76
2023/06/25 05:01:27;;;;;;;10.32;4.30;;;;;;;;;;4974325;28;20519;-75
2023/06/25 05:03:52;;;;;;;7.43;3.97;;;;;;;;;;4953084;28;20027;-76
2023/06/25 05:06:17;;;;;;;8.07;4.18;;;;;;;;;;4955188;28;20111;-77
2023/06/25 05:08:43;;;;;;;8.32;4.63;;;;;;;;;;4955746;28;20031;-76
2023/06/25 05:11:08;;;;;;;7.88;4.00;;;;;;;;;;4951080;28;20023;-76
2023/06/25 05:13:35;;;;;;;8.07;4.38;;;;;;;;;;4957492;28;20023;-77
2023/06/25 05:16:01;;;;;;;6.13;4.68;;;;;;;;;;4964862;28;20122;-77
2023/06/25 05:18:26;;;;;;;9.60;4.72;;;;;;;;;;4964114;28;20053;-77
2023/06/25 05:20:51;;;;;;;5.38;4.40;;;;;;;;;;4976386;28;20031;-77
2023/06/25 05:23:17;;;;;;;6.00;4.80;;;;;;;;;;4950439;28;20037;-77
2023/06/25 05:25:42;;;;;;;9.90;5.18;;;;;;;;;;4957672;28;20101;-77
2023/06/25 05:28:08;;;;;;;7.15;4.80;;;;;;;;;;4957342;28;20035;-77
2023/06/25 05:30:33;;;;;;;6.78;4.57;;;;;;;;;;4955963;28;20139;-79
2023/06/25 05:32:58;;;;;;;7.35;4.97;;;;;;;;;;4954835;28;20518;-78
2023/06/25 05:35:26;;;;;;;7.53;5.30;;;;;;;;;;4954854;28;20026;-76
2023/06/25 05:37:52;;;;;;;8.10;5.28;;;;;;;;;;4958369;28;20022;-79
2023/06/25 05:40:17;;;;;;;7.68;6.20;;;;;;;;;;4956006;28;20098;-78
2023/06/25 05:42:43;;;;;;;7.40;6.30;;;;;;;;;;4950935;28;20025;-78
2023/06/25 05:45:08;;;;;;;6.28;5.68;;;;;;;;;;4950455;28;20039;-79
2023/06/25 05:47:34;;;;;;;9.70;6.20;;;;;;;;;;4956228;28;20027;-78
2023/06/25 05:49:59;;;;;;;8.68;5.03;;;;;;;;;;4953733;28;20034;-77
2023/06/25 05:52:25;;;;;;;6.32;4.85;;;;;;;;;;4951447;28;20023;-77
2023/06/25 05:54:50;;;;;;;7.03;5.47;;;;;;;;;;4953414;28;20028;-77
2023/06/25 05:57:15;;;;;;;6.72;5.10;;;;;;;;;;4954181;28;20027;-78
2023/06/25 05:59:41;;;;;;;6.78;5.07;;;;;;;;;;4958425;28;20019;-77
2023/06/25 06:02:08;;;;;;;8.95;5.85;;;;;;;;;;4957848;28;20035;-77
2023/06/25 06:04:34;;;;;;;6.22;5.50;;;;;;;;;;4956740;28;20007;-77
2023/06/25 06:07:00;;;;;;;7.57;5.22;;;;;;;;;;4951423;28;20031;-77
2023/06/25 06:09:25;;;;;;;10.40;6.07;;;;;;;;;;4955503;28;20085;-78
2023/06/25 06:11:50;;;;;;;7.88;5.40;;;;;;;;;;4951213;28;20487;-78
2023/06/25 06:14:16;;;;;;;6.35;5.50;;;;;;;;;;4951733;28;20026;-77
2023/06/25 06:16:41;;;;;;;7.70;5.70;;;;;;;;;;4954363;28;20396;-78
2023/06/25 06:19:07;;;;;;;8.40;5.53;;;;;;;;;;4949935;28;20027;-77
2023/06/25 06:21:32;;;;;;;6.05;5.43;;;;;;;;;;4967982;28;20329;-78
2023/06/25 06:23:57;;;;;;;7.15;5.78;;;;;;;;;;4979508;28;20488;-77
2023/06/25 06:26:23;;;;;;;6.60;5.43;;;;;;;;;;4954212;28;20038;-78
2023/06/25 06:28:48;;;;;;;6.72;5.47;;;;;;;;;;4949148;28;20030;-77
2023/06/25 06:31:14;;;;;;;9.48;5.45;;;;;;;;;;4957635;28;20615;-78
2023/06/25 06:33:39;;;;;;;7.43;5.63;;;;;;;;;;4958119;28;20034;-78
2023/06/25 06:36:05;;;;;;;6.85;5.40;;;;;;;;;;4957146;28;20024;-77
2023/06/25 06:38:30;;;;;;;9.63;5.63;;;;;;;;;;4951662;28;20025;-78
2023/06/25 06:40:55;;;;;;;8.25;5.13;;;;;;;;;;4951890;28;20403;-78
2023/06/25 06:43:21;;;;;;;8.75;5.68;;;;;;;;;;4953941;28;20377;-78
2023/06/25 06:45:46;;;;;;;4.57;4.15;;;;;;;;;;4954779;28;20027;-78
2023/06/25 06:48:12;;;;;;;4.07;3.67;;;;;;;;;;4953572;28;20035;-77
2023/06/25 06:50:37;;;;;;;8.18;6.28;;;;;;;;;;4953420;28;20024;-77
2023/06/25 06:53:02;;;;;;;9.65;6.18;;;;;;;;;;4952759;28;20034;-78
2023/06/25 06:55:28;;;;;;;7.68;5.97;;;;;;;;;;4955146;28;20046;-78
2023/06/25 06:57:53;;;;;;;6.80;5.22;;;;;;;;;;4954690;28;20027;-77
2023/06/25 07:00:19;;;;;;;7.18;5.55;;;;;;;;;;4943813;28;20027;-78
2023/06/25 07:02:45;;;;;;;6.15;5.32;;;;;;;;;;4952829;28;20027;-78
2023/06/25 07:05:11;;;;;;;10.55;5.35;;;;;;;;;;4953857;28;20110;-78
2023/06/25 07:07:36;;;;;;;9.55;5.78;;;;;;;;;;4951331;28;20024;-78
2023/06/25 07:10:02;;;;;;;4.93;4.22;;;;;;;;;;4947986;28;20078;-78
2023/06/25 07:12:27;;;;;;;6.63;5.20;;;;;;;;;;4949672;28;20027;-78
2023/06/25 07:14:53;;;;;;;7.18;5.53;;;;;;;;;;4970658;28;20487;-78
2023/06/25 07:17:19;;;;;;;6.13;4.88;;;;;;;;;;4952947;28;20082;-77
2023/06/25 07:19:44;;;;;;;7.18;4.88;;;;;;;;;;4947710;28;20023;-76
2023/06/25 07:22:09;;;;;;;7.50;5.10;;;;;;;;;;4979101;28;20383;-76
2023/06/25 07:24:35;;;;;;;6.18;4.55;;;;;;;;;;4949717;28;20020;-77
2023/06/25 07:27:00;;;;;;;5.05;4.55;;;;;;;;;;4945463;28;20431;-77
2023/06/25 07:29:27;;;;;;;5.30;4.60;;;;;;;;;;4953670;28;20042;-77
2023/06/25 07:31:53;;;;;;;6.78;5.07;;;;;;;;;;4945928;28;20033;-77
2023/06/25 07:34:19;;;;;;;7.07;5.60;;;;;;;;;;4946073;28;20031;-77
2023/06/25 07:36:44;;;;;;;7.88;5.22;;;;;;;;;;4966394;28;20158;-76
2023/06/25 07:39:22;;;;;;;7.50;4.88;;;;;;;;;;4951407;28;20105;-77
2023/06/25 07:41:47;;;;;;;6.72;5.13;;;;;;;;;;4956169;28;20022;-76
2023/06/25 07:44:13;;;;;;;5.78;4.60;;;;;;;;;;4946006;28;20016;-77
2023/06/25 07:46:38;;;;;;;5.50;4.78;;;;;;;;;;4959569;28;20038;-76
2023/06/25 07:49:04;;;;;;;5.80;4.35;;;;;;;;;;4942211;28;20042;-77
2023/06/25 07:51:29;;;;;;;5.78;4.78;;;;;;;;;;4956212;28;20054;-78
2023/06/25 07:53:54;;;;;;;5.68;4.10;;;;;;;;;;4944606;28;20031;-76
2023/06/25 07:56:20;;;;;;;4.45;4.00;;;;;;;;;;4959572;28;20050;-77
2023/06/25 07:58:45;;;;;;;5.47;4.40;;;;;;;;;;4954077;28;20027;-77
2023/06/25 08:01:10;;;;;;;4.35;3.53;;;;;;;;;;4948118;28;20043;-76
2023/06/25 08:03:36;;;;;;;5.07;4.25;;;;;;;;;;4951011;28;20054;-77
2023/06/25 08:06:01;;;;;;;4.25;3.65;;;;;;;;;;4946758;28;20030;-76
2023/06/25 08:08:27;;;;;;;6.38;4.18;;;;;;;;;;4946751;28;20480;-76
2023/06/25 08:10:52;;;;;;;4.25;3.85;;;;;;;;;;4949443;28;20019;-78
2023/06/25 08:13:18;;;;;;;5.32;4.30;;;;;;;;;;4950517;28;20760;-78
2023/06/25 08:15:44;;;;;;;5.35;4.18;;;;;;;;;;4948750;28;20031;-78
2023/06/25 08:18:09;;;;;;;6.45;3.70;;;;;;;;;;4954124;28;20649;-78
2023/06/25 08:20:35;;;;;;;5.28;3.70;;;;;;;;;;4970874;28;20038;-78
2023/06/25 08:23:00;;;;;;;4.50;3.88;;;;;;;;;;4950755;28;20031;-78
2023/06/25 08:25:26;;;;;;;4.28;3.90;;;;;;;;;;4956637;28;20031;-78
2023/06/25 08:27:52;;;;;;;4.55;3.90;;;;;;;;;;4949658;28;20043;-78
2023/06/25 08:30:18;;;;;;;3.70;3.33;;;;;;;;;;4955774;28;20034;-78
2023/06/25 08:32:43;;;;;;;5.90;4.05;;;;;;;;;;4951600;28;20476;-78
2023/06/25 08:35:09;;;;;;;4.57;4.18;;;;;;;;;;4947704;28;20038;-77
2023/06/25 08:37:34;;;;;;;5.22;4.10;;;;;;;;;;4951244;28;20031;-78
2023/06/25 08:40:00;;;;;;;4.88;4.05;;;;;;;;;;4954079;28;20391;-78
2023/06/25 08:42:26;;;;;;;4.90;4.05;;;;;;;;;;4955272;28;20037;-78
2023/06/25 08:44:52;;;;;;;4.10;3.70;;;;;;;;;;4954799;28;20031;-78
2023/06/25 08:47:20;;;;;;;3.97;3.53;;;;;;;;;;4960017;28;20085;-78
2023/06/25 08:49:49;;;;;;;4.40;4.00;;;;;;;;;;4949982;28;20048;-78
2023/06/25 08:52:18;;;;;;;4.70;4.30;;;;;;;;;;4950847;28;20447;-78
2023/06/25 08:54:45;;;;;;;4.57;4.18;;;;;;;;;;4952319;28;20050;-78
2023/06/25 08:57:10;;;;;;;4.93;4.07;;;;;;;;;;4949209;28;20126;-78
2023/06/25 08:59:36;;;;;;;5.40;4.05;;;;;;;;;;4954432;28;20047;-78
2023/06/25 09:02:02;;;;;;;4.00;3.60;;;;;;;;;;4951091;28;20035;-78
2023/06/25 09:04:27;;;;;;;4.13;3.83;;;;;;;;;;4948142;28;20027;-78
2023/06/25 09:06:52;;;;;;;5.25;3.75;;;;;;;;;;4955854;28;20033;-78
2023/06/25 09:09:19;;;;;;;4.45;4.05;;;;;;;;;;4949481;28;20023;-78
2023/06/25 09:11:44;;;;;;;4.40;4.00;;;;;;;;;;4950691;28;20033;-77
2023/06/25 09:14:10;;;;;;;4.15;3.80;;;;;;;;;;4952868;28;20027;-78
2023/06/25 09:16:46;;;;;;;4.22;3.53;;;;;;;;;;4952599;28;20035;-78
2023/06/25 09:19:19;;;;;;;4.18;3.70;;;;;;;;;;4951426;28;20111;-78
2023/06/25 09:21:44;;;;;;;4.57;3.78;;;;;;;;;;4951835;28;20031;-78
2023/06/25 09:24:18;;;;;;;5.35;4.05;;;;;;;;;;4954051;28;20023;-78
2023/06/25 09:26:48;;;;;;;4.53;3.65;;;;;;;;;;4951910;28;20107;-78
2023/06/25 09:29:15;;;;;;;4.03;3.70;;;;;;;;;;4949942;28;20542;-78
2023/06/25 09:31:42;;;;;;;3.67;3.38;;;;;;;;;;4953005;28;20506;-78
2023/06/25 09:34:08;;;;;;;4.63;3.72;;;;;;;;;;4957136;28;20127;-78
2023/06/25 09:36:35;;;;;;;3.95;3.55;;;;;;;;;;4971705;28;20047;-79
2023/06/25 09:39:02;;;;;;;4.25;3.60;;;;;;;;;;4950680;28;20458;-78
2023/06/25 09:41:28;;;;;;;5.80;3.67;;;;;;;;;;4953504;28;20058;-78
2023/06/25 09:43:56;;;;;;;4.05;3.60;;;;;;;;;;4952963;28;20019;-78
2023/06/25 09:46:21;;;;;;;3.88;3.58;;;;;;;;;;4953796;28;20031;-78
2023/06/25 09:48:51;;;;;;;4.18;3.60;;;;;;;;;;4952263;28;20053;-78
2023/06/25 09:51:19;;;;;;;3.85;3.30;;;;;;;;;;4952733;28;20023;-78
2023/06/25 09:53:49;;;;;;;3.85;3.45;;;;;;;;;;4951437;28;20166;-79
2023/06/25 09:56:17;;;;;;;4.10;3.70;;;;;;;;;;4952634;28;20384;-78
2023/06/25 09:58:42;;;;;;;3.40;3.10;;;;;;;;;;4952343;28;20674;-78
2023/06/25 10:01:09;;;;;;;3.05;2.80;;;;;;;;;;4956492;28;20106;-78
2023/06/25 10:03:35;;;;;;;4.07;3.70;;;;;;;;;;4958123;28;20026;-78
2023/06/25 10:06:03;;;;;;;4.18;3.42;;;;;;;;;;4953767;28;20047;-79
2023/06/25 10:08:31;;;;;;;4.18;3.78;;;;;;;;;;4954131;28;20103;-79
2023/06/25 10:11:00;;;;;;;4.13;3.72;;;;;;;;;;4951710;28;20027;-78
2023/06/25 10:13:26;;;;;;;4.38;3.70;;;;;;;;;;4953836;28;20055;-78
2023/06/25 10:15:59;;;;;;;4.07;3.67;;;;;;;;;;4952427;28;20066;-78
2023/06/25 10:18:25;;;;;;;4.28;3.58;;;;;;;;;;4949338;28;20623;-78
2023/06/25 10:20:55;;;;;;;3.40;3.10;;;;;;;;;;4953629;28;20479;-78
2023/06/25 10:23:23;;;;;;;4.15;3.65;;;;;;;;;;4949707;28;20055;-78
2023/06/25 10:25:57;;;;;;;4.30;3.67;;;;;;;;;;4954030;28;20043;-77
2023/06/25 10:28:34;;;;;;;4.15;3.40;;;;;;;;;;4952090;28;20110;-78
2023/06/25 10:31:10;;;;;;;3.85;3.55;;;;;;;;;;4952773;28;20110;-78
2023/06/25 10:33:37;;;;;;;4.30;3.90;;;;;;;;;;4950929;28;20086;-78
2023/06/25 10:36:05;;;;;;;3.90;3.60;;;;;;;;;;4953847;28;20122;-78
2023/06/25 10:38:31;;;;;;;3.20;2.47;;;;;;;;;;4950236;28;20030;-78
2023/06/25 10:40:56;;;;;;;5.20;3.38;;;;;;;;;;4966969;28;20031;-78
2023/06/25 10:43:22;;;;;;;4.18;3.65;;;;;;;;;;4949307;28;20019;-78
2023/06/25 10:45:52;;;;;;;3.13;2.90;;;;;;;;;;4950530;28;20037;-78
2023/06/25 10:48:18;;;;;;;;;;;;;;;;;;4946945;28;20058;-78
2023/06/25 10:50:44;;;;;;;4.03;3.60;;;;;;;;;;4948739;28;20004;-78
2023/06/25 10:53:15;;;;;;;4.45;4.05;;;;;;;;;;4949889;28;20087;-78
2023/06/25 10:55:45;;;;;;;4.43;4.03;;;;;;;;;;4956870;28;20022;-77
2023/06/25 10:58:14;;;;;;;4.25;3.80;;;;;;;;;;4945022;28;20059;-78
2023/06/25 11:00:40;;;;;;;5.33;4.47;;;;;;;;;;4948499;28;20062;-78
2023/06/25 11:03:05;;;;;;;5.78;3.90;;;;;;;;;;4950886;28;20304;-77
2023/06/25 11:05:36;;;;;;;4.45;4.07;;;;;;;;;;4949821;28;20390;-78
2023/06/25 11:08:07;;;;;;;5.30;4.20;;;;;;;;;;4946527;28;20067;-78
2023/06/25 11:10:34;;;;;;;4.13;3.72;;;;;;;;;;4947153;28;20023;-78
2023/06/25 11:12:59;;;;;;;3.30;3.00;;;;;;;;;;4944804;28;20023;-78
2023/06/25 11:15:25;;;;;;;4.68;3.60;;;;;;;;;;4947885;28;20042;-78
2023/06/25 11:17:54;;;;;;;3.70;3.40;;;;;;;;;;4946495;28;20054;-78
2023/06/25 11:20:24;;;;;;;4.45;4.05;;;;;;;;;;4945935;28;20123;-78
2023/06/25 11:22:49;;;;;;;3.85;3.55;;;;;;;;;;4947959;28;20028;-78
2023/06/25 11:25:15;;;;;;;6.00;4.88;;;;;;;;;;4947418;28;20030;-78
2023/06/25 11:27:41;;;;;;;32.65;16.83;;;;;;;;;;4951048;28;20127;-78
2023/06/25 11:30:08;;;;;;;25.13;22.52;;;;;;;;;;4945757;28;20163;-78
2023/06/25 11:32:35;;;;;;;3.47;3.17;;;;;;;;;;4952418;28;20034;-78
2023/06/25 11:35:10;;;;;;;8.88;7.25;;;;;;;;;;4945136;28;20075;-78
2023/06/25 11:37:49;;;;;;;357.48;264.23;;;;;;;;;;4978400;23;20529;-75
2023/06/25 11:40:26;;;;;;;160.63;94.03;;;;;;;;;;4963254;28;20405;-75
2023/06/25 11:42:52;;;;;;;6.60;6.00;;;;;;;;;;4964245;28;20030;-75
2023/06/25 11:45:19;;;;;;;5.55;5.05;;;;;;;;;;4967210;28;20019;-75
2023/06/25 11:47:54;;;;;;;5.00;4.50;;;;;;;;;;4981670;28;20478;-74
2023/06/25 11:50:26;;;;;;;4.28;3.88;;;;;;;;;;4965533;28;20035;-75
2023/06/25 11:52:53;;;;;;;4.78;4.32;;;;;;;;;;4956996;28;20023;-76
2023/06/25 11:55:20;;;;;;;4.78;4.25;;;;;;;;;;4971143;28;20053;-75
2023/06/25 11:57:46;;;;;;;5.13;4.63;;;;;;;;;;4976011;28;20061;-75
2023/06/25 12:00:12;;;;;;;4.63;4.13;;;;;;;;;;4975602;28;20054;-75
2023/06/25 12:02:37;;;;;;;5.20;4.40;;;;;;;;;;4976793;28;20170;-75
2023/06/25 12:05:03;;;;;;;4.93;4.18;;;;;;;;;;4970474;28;20069;-75
2023/06/25 12:07:29;;;;;;;4.70;4.30;;;;;;;;;;4975668;28;20027;-75
2023/06/25 12:09:54;;;;;;;4.22;3.83;;;;;;;;;;4979057;28;20015;-75
2023/06/25 12:12:20;;;;;;;4.05;3.65;;;;;;;;;;4973947;28;20463;-75
2023/06/25 12:14:47;;;;;;;4.53;3.60;;;;;;;;;;4973336;28;20503;-75
2023/06/25 12:17:13;;;;;;;4.57;3.60;;;;;;;;;;4972898;28;20039;-75
2023/06/25 12:19:38;;;;;;;4.65;4.20;;;;;;;;;;4985078;28;20463;-75
2023/06/25 12:22:04;;;;;;;4.45;4.05;;;;;;;;;;4976528;28;20534;-75
2023/06/25 12:24:29;;;;;;;5.85;4.10;;;;;;;;;;4975480;28;20270;-75
2023/06/25 12:26:54;;;;;;;4.55;4.05;;;;;;;;;;4974460;28;20030;-76
2023/06/25 12:29:20;;;;;;;6.10;4.07;;;;;;;;;;4975060;28;20034;-76
2023/06/25 12:31:45;;;;;;;4.38;4.07;;;;;;;;;;4980819;28;20463;-75
2023/06/25 12:34:11;;;;;;;5.68;3.83;;;;;;;;;;4957185;28;20145;-76
2023/06/25 12:36:36;;;;;;;4.22;3.83;;;;;;;;;;4947709;28;20023;-75
2023/06/25 12:39:02;;;;;;;4.40;4.00;;;;;;;;;;4965018;28;20033;-77
2023/06/25 12:41:27;;;;;;;4.05;3.70;;;;;;;;;;4969990;28;20019;-77
2023/06/25 12:43:53;;;;;;;4.93;4.00;;;;;;;;;;4958429;28;20046;-76
2023/06/25 12:46:19;;;;;;;4.20;3.80;;;;;;;;;;4968547;28;20038;-76
2023/06/25 12:48:44;;;;;;;4.45;4.05;;;;;;;;;;4959762;28;20035;-76
2023/06/25 12:51:10;;;;;;;4.47;4.07;;;;;;;;;;4972810;28;20154;-76
2023/06/25 12:53:35;;;;;;;4.60;4.20;;;;;;;;;;4984105;28;20030;-77
2023/06/25 12:56:00;;;;;;;4.13;3.83;;;;;;;;;;4970094;28;20023;-76
2023/06/25 12:58:26;;;;;;;4.55;3.63;;;;;;;;;;4978316;28;20554;-76
2023/06/25 13:00:52;;;;;;;4.85;4.05;;;;;;;;;;4973767;28;20034;-76
2023/06/25 13:03:18;;;;;;;3.80;3.42;;;;;;;;;;4983417;28;20011;-76
2023/06/25 13:05:44;;;;;;;4.57;3.90;;;;;;;;;;4975947;28;20031;-76
2023/06/25 13:08:10;;;;;;;4.53;4.03;;;;;;;;;;4972875;28;20080;-76
2023/06/25 13:10:35;;;;;;;4.13;3.80;;;;;;;;;;4967530;28;20026;-76
2023/06/25 13:13:00;;;;;;;3.83;3.45;;;;;;;;;;4970994;28;20030;-76
2023/06/25 13:15:26;;;;;;;4.53;4.15;;;;;;;;;;4980631;28;20680;-76
2023/06/25 13:17:51;;;;;;;4.93;4.53;;;;;;;;;;4973073;28;20030;-76
2023/06/25 13:20:17;;;;;;;4.43;4.03;;;;;;;;;;4966383;28;20051;-76
2023/06/25 13:22:42;;;;;;;5.43;5.00;;;;;;;;;;4979487;28;20026;-76
2023/06/25 13:25:08;;;;;;;4.35;3.95;;;;;;;;;;4977047;28;20027;-76
2023/06/25 13:27:33;;;;;;;4.57;3.90;;;;;;;;;;4982700;28;20030;-76
2023/06/25 13:29:59;;;;;;;3.97;3.67;;;;;;;;;;4974224;28;20022;-76
2023/06/25 13:32:24;;;;;;;4.47;4.18;;;;;;;;;;4976055;28;20394;-76
2023/06/25 13:34:49;;;;;;;4.25;3.90;;;;;;;;;;4969018;28;20023;-76
2023/06/25 13:37:15;;;;;;;3.97;3.65;;;;;;;;;;4969039;28;20545;-76
2023/06/25 13:39:40;;;;;;;4.00;3.70;;;;;;;;;;4965577;28;20087;-76
2023/06/25 13:42:06;;;;;;;4.40;4.00;;;;;;;;;;4988698;28;20482;-76
2023/06/25 13:44:32;;;;;;;4.18;3.78;;;;;;;;;;4968820;28;20023;-76
2023/06/25 13:46:57;;;;;;;4.15;3.75;;;;;;;;;;4974687;28;20036;-76
2023/06/25 13:49:23;;;;;;;4.70;4.18;;;;;;;;;;4981118;28;20022;-76
2023/06/25 13:51:48;;;;;;;4.15;3.75;;;;;;;;;;4978114;28;20030;-76
2023/06/25 13:54:14;;;;;;;4.30;3.90;;;;;;;;;;4976941;28;20475;-76
2023/06/25 13:56:40;;;;;;;4.78;3.95;;;;;;;;;;4976214;28;20042;-76
2023/06/25 13:59:05;;;;;;;4.70;4.10;;;;;;;;;;4978786;28;20043;-76
2023/06/25 14:01:31;;;;;;;4.63;4.20;;;;;;;;;;4972495;28;20023;-76
2023/06/25 14:03:56;;;;;;;4.32;3.85;;;;;;;;;;4963448;28;20027;-76
2023/06/25 14:06:22;;;;;;;4.75;3.80;;;;;;;;;;4973622;28;20026;-76
2023/06/25 14:08:47;;;;;;;4.50;4.10;;;;;;;;;;4977139;28;20510;-76
2023/06/25 14:11:13;;;;;;;5.00;3.92;;;;;;;;;;4980845;28;20026;-76
2023/06/25 14:13:38;;;;;;;4.10;3.80;;;;;;;;;;4973299;28;20026;-76
2023/06/25 14:16:04;;;;;;;4.15;3.75;;;;;;;;;;4974889;28;20068;-76
2023/06/25 14:18:29;;;;;;;3.90;3.47;;;;;;;;;;4974847;28;20035;-76
2023/06/25 14:20:55;;;;;;;4.20;3.80;;;;;;;;;;4979211;28;20022;-76
2023/06/25 14:23:21;;;;;;;5.10;3.95;;;;;;;;;;4976558;28;20386;-76
2023/06/25 14:25:47;;;;;;;4.53;3.92;;;;;;;;;;4964580;28;20018;-76
2023/06/25 14:28:13;;;;;;;3.85;3.55;;;;;;;;;;4961687;28;20081;-76
2023/06/25 14:30:39;;;;;;;4.10;3.80;;;;;;;;;;4972237;28;20030;-76
2023/06/25 14:33:05;;;;;;;5.18;3.90;;;;;;;;;;4968219;28;20035;-76
2023/06/25 14:35:30;;;;;;;4.45;4.07;;;;;;;;;;4965308;28;20027;-76
2023/06/25 14:37:57;;;;;;;4.25;3.85;;;;;;;;;;4958949;28;20051;-76